createdAt,value
2019-03-03T00:01:52.387Z,10.80
2019-03-03T00:04:21.764Z,10.80
2019-03-03T00:06:51.072Z,10.80
2019-03-03T00:09:39.685Z,10.80
2019-03-03T00:12:08.946Z,10.80
2019-03-03T00:14:38.222Z,10.80
2019-03-03T00:17:07.510Z,10.70
2019-03-03T00:19:36.849Z,10.60
2019-03-03T00:22:06.240Z,10.60
2019-03-03T00:24:35.540Z,10.60
2019-03-03T00:27:04.961Z,10.70
2019-03-03T00:29:34.543Z,10.60
2019-03-03T00:32:04.967Z,10.60
2019-03-03T00:34:34.302Z,10.50
2019-03-03T00:37:27.444Z,10.60
2019-03-03T00:39:58.383Z,10.60
2019-03-03T00:42:31.929Z,10.50
2019-03-03T00:45:38.774Z,10.60
2019-03-03T00:48:12.352Z,10.50
2019-03-03T00:50:52.179Z,10.50
2019-03-03T00:53:39.342Z,10.50
2019-03-03T00:56:16.119Z,10.50
2019-03-03T00:58:52.975Z,10.60
2019-03-03T01:01:29.913Z,10.60
2019-03-03T01:04:03.620Z,10.60
2019-03-03T01:06:40.647Z,10.70
2019-03-03T01:09:28.628Z,10.70
2019-03-03T01:12:28.031Z,10.70
2019-03-03T01:15:11.055Z,10.70
2019-03-03T01:17:41.942Z,10.70
2019-03-03T01:20:28.129Z,10.70
2019-03-03T01:23:04.909Z,10.80
2019-03-03T01:25:35.029Z,10.80
2019-03-03T01:28:04.338Z,10.80
2019-03-03T01:30:33.654Z,10.80
2019-03-03T01:33:02.915Z,10.90
2019-03-03T01:35:32.222Z,10.90
2019-03-03T01:38:22.366Z,10.90
2019-03-03T01:40:51.851Z,10.80
2019-03-03T01:43:21.113Z,10.90
2019-03-03T01:45:50.336Z,10.80
2019-03-03T01:48:19.603Z,10.70
2019-03-03T01:50:48.900Z,10.70
2019-03-03T01:53:18.118Z,10.80
2019-03-03T01:55:47.505Z,10.70
2019-03-03T01:58:16.823Z,10.70
2019-03-03T02:00:46.263Z,10.70
2019-03-03T02:03:15.525Z,10.80
2019-03-03T02:05:45.107Z,10.90
2019-03-03T02:08:33.958Z,10.90
2019-03-03T02:11:03.417Z,10.90
2019-03-03T02:13:32.717Z,10.90
2019-03-03T02:16:03.942Z,10.80
2019-03-03T02:18:33.211Z,10.80
2019-03-03T02:21:02.433Z,10.80
2019-03-03T02:23:31.694Z,10.80
2019-03-03T02:26:00.950Z,10.90
2019-03-03T02:28:30.284Z,10.90
2019-03-03T02:30:59.540Z,10.80
2019-03-03T02:33:28.769Z,10.80
2019-03-03T02:35:58.018Z,10.80
2019-03-03T02:38:27.251Z,10.80
2019-03-03T02:40:56.794Z,10.80
2019-03-03T02:43:26.038Z,10.70
2019-03-03T02:46:14.659Z,10.70
2019-03-03T02:48:43.889Z,10.70
2019-03-03T02:51:13.206Z,10.70
2019-03-03T02:53:42.447Z,10.70
2019-03-03T02:56:11.764Z,10.80
2019-03-03T02:58:41.067Z,10.80
2019-03-03T03:01:23.643Z,10.70
2019-03-03T03:03:52.904Z,10.70
2019-03-03T03:06:29.587Z,10.60
2019-03-03T03:09:06.253Z,10.60
2019-03-03T03:11:40.103Z,10.50
2019-03-03T03:14:10.998Z,10.40
2019-03-03T03:16:58.031Z,10.50
2019-03-03T03:19:47.322Z,10.50
2019-03-03T03:22:21.176Z,10.60
2019-03-03T03:25:08.434Z,10.60
2019-03-03T03:27:42.306Z,10.60
2019-03-03T03:30:16.272Z,10.60
2019-03-03T03:32:47.192Z,10.60
2019-03-03T03:35:18.084Z,10.60
2019-03-03T03:38:01.352Z,10.60
2019-03-03T03:40:38.022Z,10.60
2019-03-03T03:43:14.417Z,10.50
2019-03-03T03:45:45.323Z,10.50
2019-03-03T03:48:16.216Z,10.40
2019-03-03T03:50:47.125Z,10.40
2019-03-03T03:53:30.123Z,10.40
2019-03-03T03:56:15.971Z,10.40
2019-03-03T03:58:55.800Z,10.50
2019-03-03T04:01:29.565Z,10.50
2019-03-03T04:04:00.445Z,10.60
2019-03-03T04:06:31.415Z,10.50
2019-03-03T04:09:04.819Z,10.60
2019-03-03T04:11:53.775Z,10.50
2019-03-03T04:14:33.455Z,10.50
2019-03-03T04:17:20.846Z,10.50
2019-03-03T04:20:08.835Z,10.40
2019-03-03T04:22:39.733Z,10.40
2019-03-03T04:25:16.559Z,10.40
2019-03-03T04:27:50.154Z,10.40
2019-03-03T04:30:38.894Z,10.40
2019-03-03T04:33:09.807Z,10.40
2019-03-03T04:35:40.710Z,10.40
2019-03-03T04:38:17.542Z,10.40
2019-03-03T04:40:54.286Z,10.50
2019-03-03T04:43:27.920Z,10.50
2019-03-03T04:46:07.441Z,10.50
2019-03-03T04:48:38.342Z,10.60
2019-03-03T04:51:32.846Z,10.60
2019-03-03T04:54:09.343Z,10.60
2019-03-03T04:56:49.033Z,10.70
2019-03-03T04:59:28.946Z,10.80
2019-03-03T05:01:59.918Z,10.80
2019-03-03T05:04:30.790Z,10.80
2019-03-03T05:07:23.735Z,10.70
2019-03-03T05:09:54.632Z,10.70
2019-03-03T05:12:41.654Z,10.70
2019-03-03T05:15:22.655Z,10.80
2019-03-03T05:17:53.552Z,10.70
2019-03-03T05:20:22.896Z,10.70
2019-03-03T05:22:52.132Z,10.50
2019-03-03T05:25:22.969Z,10.40
2019-03-03T05:27:52.399Z,10.40
2019-03-03T05:30:21.673Z,10.40
2019-03-03T05:32:50.911Z,10.30
2019-03-03T05:35:20.146Z,10.20
2019-03-03T05:38:08.830Z,10.10
2019-03-03T05:40:38.127Z,10.00
2019-03-03T05:43:07.418Z,9.80
2019-03-03T05:45:56.002Z,9.70
2019-03-03T05:48:25.266Z,9.70
2019-03-03T05:50:54.583Z,9.70
2019-03-03T05:53:23.827Z,9.70
2019-03-03T05:55:53.087Z,9.70
2019-03-03T05:58:22.335Z,9.70
2019-03-03T06:00:54.284Z,9.70
2019-03-03T06:03:23.495Z,9.70
2019-03-03T06:05:52.738Z,9.70
2019-03-03T06:08:21.962Z,9.70
2019-03-03T06:10:51.383Z,9.70
2019-03-03T06:13:20.615Z,9.60
2019-03-03T06:15:49.920Z,9.60
2019-03-03T06:18:19.178Z,9.60
2019-03-03T06:20:48.416Z,9.60
2019-03-03T06:23:17.678Z,9.60
2019-03-03T06:26:06.316Z,9.50
2019-03-03T06:28:35.638Z,9.50
2019-03-03T06:31:04.945Z,9.60
2019-03-03T06:33:34.164Z,9.70
2019-03-03T06:36:03.486Z,9.80
2019-03-03T06:38:32.700Z,9.80
2019-03-03T06:41:02.037Z,9.90
2019-03-03T06:43:31.275Z,10.00
2019-03-03T06:46:00.588Z,10.00
2019-03-03T06:48:29.838Z,10.00
2019-03-03T06:50:59.183Z,10.00
2019-03-03T06:53:28.603Z,10.10
2019-03-03T06:55:57.913Z,10.10
2019-03-03T06:58:28.483Z,10.10
2019-03-03T07:00:59.034Z,10.20
2019-03-03T07:03:28.310Z,10.30
2019-03-03T07:05:57.563Z,10.30
2019-03-03T07:08:26.825Z,10.30
2019-03-03T07:10:56.059Z,10.30
2019-03-03T07:13:25.324Z,10.30
2019-03-03T07:15:54.592Z,10.30
2019-03-03T07:18:23.999Z,10.30
2019-03-03T07:20:53.319Z,10.30
2019-03-03T07:23:22.589Z,10.20
2019-03-03T07:25:51.925Z,10.20
2019-03-03T07:28:21.166Z,10.10
2019-03-03T07:30:50.423Z,10.10
2019-03-03T07:33:21.329Z,10.00
2019-03-03T07:35:50.574Z,9.90
2019-03-03T07:38:19.828Z,9.90
2019-03-03T07:40:49.075Z,9.90
2019-03-03T07:43:18.322Z,9.90
2019-03-03T07:45:47.551Z,9.90
2019-03-03T07:48:16.867Z,10.00
2019-03-03T07:50:46.103Z,10.00
2019-03-03T07:53:15.363Z,10.10
2019-03-03T07:55:44.662Z,10.00
2019-03-03T07:58:14.000Z,10.00
2019-03-03T08:00:43.242Z,10.00
2019-03-03T08:03:12.682Z,10.10
2019-03-03T08:05:42.007Z,10.10
2019-03-03T08:08:11.257Z,10.10
2019-03-03T08:10:40.515Z,10.10
2019-03-03T08:13:09.879Z,10.10
2019-03-03T08:15:39.162Z,10.00
2019-03-03T08:18:08.432Z,10.00
2019-03-03T08:20:37.701Z,10.00
2019-03-03T08:23:06.959Z,10.00
2019-03-03T08:25:36.320Z,9.90
2019-03-03T08:28:05.686Z,10.00
2019-03-03T08:30:36.510Z,10.00
2019-03-03T08:33:05.835Z,10.00
2019-03-03T08:35:35.082Z,10.00
2019-03-03T08:38:04.349Z,10.10
2019-03-03T08:40:33.652Z,10.10
2019-03-03T08:43:06.995Z,10.00
2019-03-03T08:45:56.185Z,10.00
2019-03-03T08:48:43.591Z,10.00
2019-03-03T08:51:14.580Z,10.10
2019-03-03T08:53:45.499Z,10.10
2019-03-03T08:56:16.414Z,10.20
2019-03-03T08:59:00.175Z,10.20
2019-03-03T09:01:31.066Z,10.20
2019-03-03T09:04:11.143Z,10.10
2019-03-03T09:06:47.822Z,10.00
2019-03-03T09:09:30.474Z,10.10
2019-03-03T09:12:01.387Z,10.10
2019-03-03T09:14:34.906Z,10.20
2019-03-03T09:17:06.238Z,10.30
2019-03-03T09:19:49.416Z,10.20
2019-03-03T09:22:20.337Z,10.20
2019-03-03T09:24:57.394Z,10.30
2019-03-03T09:27:28.304Z,10.30
2019-03-03T09:29:59.236Z,10.30
2019-03-03T09:32:37.546Z,10.30
2019-03-03T09:35:11.416Z,10.30
2019-03-03T09:37:45.371Z,10.40
2019-03-03T09:40:31.317Z,10.40
2019-03-03T09:43:05.030Z,10.30
2019-03-03T09:45:44.813Z,10.30
2019-03-03T09:48:16.987Z,10.20
2019-03-03T09:50:48.132Z,10.10
2019-03-03T09:53:19.046Z,10.20
2019-03-03T09:55:49.952Z,10.30
2019-03-03T09:58:27.010Z,10.30
2019-03-03T10:01:00.648Z,10.20
2019-03-03T10:03:44.095Z,10.20
2019-03-03T10:06:18.962Z,10.10
2019-03-03T10:08:49.913Z,10.00
2019-03-03T10:11:23.712Z,10.00
2019-03-03T10:14:00.903Z,9.90
2019-03-03T10:16:38.167Z,9.90
2019-03-03T10:19:16.575Z,10.00
2019-03-03T10:21:47.467Z,10.00
2019-03-03T10:24:18.499Z,10.00
2019-03-03T10:26:52.158Z,10.00
2019-03-03T10:29:28.874Z,10.00
2019-03-03T10:31:59.799Z,10.10
2019-03-03T10:34:36.713Z,10.10
2019-03-03T10:37:07.710Z,10.10
2019-03-03T10:39:41.458Z,10.20
2019-03-03T10:42:14.061Z,10.20
2019-03-03T10:44:45.081Z,10.10
2019-03-03T10:47:15.986Z,10.10
2019-03-03T10:49:55.923Z,10.10
2019-03-03T10:52:47.717Z,10.20
2019-03-03T10:55:21.617Z,10.10
2019-03-03T10:57:55.055Z,10.10
2019-03-03T11:00:32.129Z,10.20
2019-03-03T11:03:11.931Z,10.10
2019-03-03T11:05:42.829Z,10.20
2019-03-03T11:08:32.842Z,10.20
2019-03-03T11:11:06.835Z,10.30
2019-03-03T11:13:40.882Z,10.30
2019-03-03T11:16:28.419Z,10.30
2019-03-03T11:18:59.314Z,10.30
2019-03-03T11:21:30.356Z,10.40
2019-03-03T11:24:01.413Z,10.40
2019-03-03T11:26:38.014Z,10.50
2019-03-03T11:29:08.990Z,10.50
2019-03-03T11:31:39.912Z,10.50
2019-03-03T11:34:27.102Z,10.50
2019-03-03T11:37:07.219Z,10.50
2019-03-03T11:39:49.884Z,10.40
2019-03-03T11:42:23.500Z,10.30
2019-03-03T11:44:54.462Z,10.30
2019-03-03T11:47:25.435Z,10.30
2019-03-03T11:50:04.923Z,10.30
2019-03-03T11:52:53.832Z,10.40
2019-03-03T11:55:40.831Z,10.30
2019-03-03T11:58:11.782Z,10.30
2019-03-03T12:00:59.361Z,10.30
2019-03-03T12:03:33.026Z,10.40
2019-03-03T12:06:04.118Z,10.50
2019-03-03T12:08:40.495Z,10.60
2019-03-03T12:11:17.328Z,10.70
2019-03-03T12:13:51.014Z,10.80
2019-03-03T12:16:39.774Z,10.80
2019-03-03T12:19:10.811Z,10.90
2019-03-03T12:21:44.717Z,11.00
2019-03-03T12:24:30.867Z,11.10
2019-03-03T12:27:13.628Z,11.20
2019-03-03T12:29:56.599Z,11.10
2019-03-03T12:32:33.447Z,11.10
2019-03-03T12:35:20.875Z,11.10
2019-03-03T12:38:01.086Z,11.10
2019-03-03T12:41:13.855Z,11.20
2019-03-03T12:43:55.417Z,11.10
2019-03-03T12:46:42.853Z,11.10
2019-03-03T12:49:29.824Z,11.10
2019-03-03T12:52:03.861Z,10.90
2019-03-03T12:54:43.984Z,11.00
2019-03-03T12:57:26.612Z,11.00
2019-03-03T13:00:13.687Z,11.10
2019-03-03T13:03:00.907Z,11.00
2019-03-03T13:05:46.894Z,11.10
2019-03-03T13:08:26.806Z,11.10
2019-03-03T13:11:06.786Z,11.00
2019-03-03T13:13:43.633Z,11.00
2019-03-03T13:16:17.231Z,11.00
2019-03-03T13:18:57.150Z,11.00
2019-03-03T13:21:28.119Z,11.00
2019-03-03T13:24:15.371Z,10.90
2019-03-03T13:26:55.246Z,10.90
2019-03-03T13:29:26.138Z,10.90
2019-03-03T13:32:08.736Z,11.00
2019-03-03T13:34:48.720Z,10.90
2019-03-03T13:37:25.473Z,10.90
2019-03-03T13:39:59.217Z,10.90
2019-03-03T13:42:36.274Z,10.90
2019-03-03T13:45:08.804Z,10.90
2019-03-03T13:47:38.123Z,11.00
2019-03-03T13:50:20.787Z,11.00
2019-03-03T13:52:50.159Z,10.90
2019-03-03T13:55:19.545Z,11.00
2019-03-03T13:57:49.130Z,11.00
2019-03-03T14:00:21.059Z,11.00
2019-03-03T14:02:50.571Z,11.00
2019-03-03T14:05:21.271Z,11.00
2019-03-03T14:07:50.755Z,10.90
2019-03-03T14:10:20.111Z,10.90
2019-03-03T14:12:49.542Z,11.00
2019-03-03T14:15:19.922Z,11.00
2019-03-03T14:17:49.310Z,11.00
2019-03-03T14:20:20.476Z,11.00
2019-03-03T14:22:49.970Z,10.90
2019-03-03T14:25:19.316Z,10.90
2019-03-03T14:27:48.641Z,10.90
2019-03-03T14:30:23.992Z,10.90
2019-03-03T14:32:53.301Z,10.90
2019-03-03T14:39:00.627Z,11.00
2019-03-03T14:41:29.970Z,11.00
2019-03-03T14:43:59.297Z,11.00
2019-03-03T14:46:28.620Z,11.00
2019-03-03T14:48:57.967Z,11.00
2019-03-03T14:51:28.547Z,11.00
2019-03-03T14:53:57.967Z,11.00
2019-03-03T14:56:27.275Z,10.90
2019-03-03T14:58:56.623Z,10.90
2019-03-03T15:01:26.142Z,10.90
2019-03-03T15:03:55.404Z,10.90
2019-03-03T15:06:24.882Z,10.90
2019-03-03T15:08:54.273Z,10.90
2019-03-03T15:11:23.521Z,10.90
2019-03-03T15:13:52.882Z,10.90
2019-03-03T15:16:22.238Z,11.00
2019-03-03T15:18:51.560Z,11.00
2019-03-03T15:21:25.090Z,11.00
2019-03-03T15:23:52.081Z,11.00
2019-03-03T15:26:24.503Z,11.00
2019-03-03T15:28:56.448Z,11.00
2019-03-03T15:31:25.704Z,11.10
2019-03-03T15:33:54.946Z,11.10
2019-03-03T15:36:24.234Z,11.10
2019-03-03T15:38:53.584Z,11.10
2019-03-03T15:41:22.937Z,11.10
2019-03-03T15:43:52.301Z,11.10
2019-03-03T15:47:05.377Z,11.20
2019-03-03T15:49:34.745Z,11.20
2019-03-03T15:52:04.063Z,11.20
2019-03-03T15:54:33.418Z,11.20
2019-03-03T15:57:02.851Z,11.30
2019-03-03T15:59:32.126Z,11.30
2019-03-03T16:02:03.123Z,11.30
2019-03-03T16:04:32.408Z,11.30
2019-03-03T16:07:01.707Z,11.20
2019-03-03T16:09:31.123Z,11.30
2019-03-03T16:12:00.650Z,11.30
2019-03-03T16:14:29.894Z,11.30
2019-03-03T16:17:06.868Z,11.40
2019-03-03T16:19:36.105Z,11.40
2019-03-03T16:22:05.471Z,11.40
2019-03-03T16:24:34.831Z,11.50
2019-03-03T16:27:04.312Z,11.50
2019-03-03T16:29:33.680Z,11.50
2019-03-03T16:32:03.156Z,11.50
2019-03-03T16:34:32.549Z,11.50
2019-03-03T16:37:01.793Z,11.50
2019-03-03T16:39:31.210Z,11.50
2019-03-03T16:42:00.500Z,11.50
2019-03-03T16:44:29.868Z,11.60
2019-03-03T16:47:14.266Z,11.60
2019-03-03T16:49:43.622Z,11.60
2019-03-03T16:52:12.874Z,11.60
2019-03-03T16:54:42.218Z,11.60
2019-03-03T16:57:11.565Z,11.60
2019-03-03T16:59:40.915Z,11.60
2019-03-03T17:02:10.259Z,11.60
2019-03-03T17:04:39.546Z,11.60
2019-03-03T17:07:08.915Z,11.60
2019-03-03T17:09:38.199Z,11.60
2019-03-03T17:12:08.821Z,11.60
2019-03-03T17:14:38.225Z,11.50
2019-03-03T17:17:07.619Z,11.60
2019-03-03T17:19:36.900Z,11.50
2019-03-03T17:22:06.235Z,11.60
2019-03-03T17:24:36.846Z,11.60
2019-03-03T17:27:07.341Z,11.50
2019-03-03T17:29:36.629Z,11.50
2019-03-03T17:32:07.470Z,11.50
2019-03-03T17:34:36.863Z,11.50
2019-03-03T17:37:06.110Z,11.50
2019-03-03T17:39:54.714Z,11.50
2019-03-03T17:42:23.939Z,11.50
2019-03-03T17:44:55.876Z,11.50
2019-03-03T17:47:25.228Z,11.50
2019-03-03T17:50:14.714Z,11.50
2019-03-03T17:52:44.905Z,11.50
2019-03-03T17:55:15.766Z,11.50
2019-03-03T17:57:45.582Z,11.50
2019-03-03T18:00:25.743Z,11.60
2019-03-03T18:02:55.336Z,11.60
2019-03-03T18:05:24.689Z,11.60
2019-03-03T18:07:54.145Z,11.50
2019-03-03T18:10:23.874Z,11.60
2019-03-03T18:12:53.181Z,11.60
2019-03-03T18:15:22.572Z,11.60
2019-03-03T18:17:51.879Z,11.60
2019-03-03T18:20:42.118Z,11.60
2019-03-03T18:23:11.422Z,11.60
2019-03-03T18:25:40.776Z,11.60
2019-03-03T18:28:10.111Z,11.60
2019-03-03T18:30:39.575Z,11.60
2019-03-03T18:33:08.939Z,11.60
2019-03-03T18:35:38.304Z,11.60
2019-03-03T18:38:07.572Z,11.70
2019-03-03T18:40:36.902Z,11.70
2019-03-03T18:43:06.176Z,11.70
2019-03-03T18:45:35.533Z,11.60
2019-03-03T18:48:05.283Z,11.60
2019-03-03T18:50:34.780Z,11.70
2019-03-03T18:53:04.109Z,11.70
2019-03-03T18:55:33.436Z,11.70
2019-03-03T18:58:02.855Z,11.70
2019-03-03T19:00:32.749Z,11.80
2019-03-03T19:03:02.096Z,11.80
2019-03-03T19:05:31.391Z,11.80
2019-03-03T19:08:00.731Z,11.80
2019-03-03T19:10:38.143Z,11.80
2019-03-03T19:13:07.426Z,11.80
2019-03-03T19:15:36.767Z,11.80
2019-03-03T19:18:06.217Z,11.80
2019-03-03T19:20:54.959Z,11.80
2019-03-03T19:23:24.287Z,11.80
2019-03-03T19:25:53.714Z,11.80
2019-03-03T19:28:23.059Z,11.80
2019-03-03T19:31:11.723Z,11.70
2019-03-03T19:33:43.975Z,11.80
2019-03-03T19:36:14.223Z,11.80
2019-03-03T19:38:43.627Z,11.80
2019-03-03T19:41:13.028Z,11.70
2019-03-03T19:43:42.371Z,11.70
2019-03-03T19:46:12.003Z,11.80
2019-03-03T19:48:41.397Z,11.80
2019-03-03T19:51:10.995Z,11.70
2019-03-03T19:53:40.307Z,11.70
2019-03-03T19:56:09.704Z,11.80
2019-03-03T19:58:39.048Z,11.70
2019-03-03T20:01:27.755Z,11.80
2019-03-03T20:03:57.175Z,11.80
2019-03-03T20:06:26.442Z,11.90
2019-03-03T20:08:55.688Z,11.90
2019-03-03T20:11:25.163Z,11.90
2019-03-03T20:13:54.513Z,12.00
2019-03-03T20:16:23.820Z,12.00
2019-03-03T20:18:53.208Z,12.00
2019-03-03T20:21:22.474Z,12.00
2019-03-03T20:23:51.713Z,12.00
2019-03-03T20:26:21.033Z,11.80
2019-03-03T20:28:50.759Z,11.60
2019-03-03T20:31:39.650Z,11.50
2019-03-03T20:34:08.981Z,11.50
2019-03-03T20:36:38.268Z,11.50
2019-03-03T20:39:07.944Z,11.50
2019-03-03T20:41:37.200Z,11.60
2019-03-03T20:44:25.861Z,11.60
2019-03-03T20:46:55.262Z,11.70
2019-03-03T20:49:28.828Z,11.70
2019-03-03T20:51:58.133Z,11.80
2019-03-03T20:54:27.447Z,11.80
2019-03-03T20:56:56.731Z,11.80
2019-03-03T20:59:25.996Z,11.80
2019-03-03T21:01:55.263Z,11.80
2019-03-03T21:04:24.525Z,11.80
2019-03-03T21:06:53.775Z,11.80
2019-03-03T21:09:23.068Z,11.80
2019-03-03T21:11:52.391Z,11.80
2019-03-03T21:14:21.687Z,11.80
2019-03-03T21:16:51.036Z,11.80
2019-03-03T21:19:20.385Z,11.80
2019-03-03T21:21:49.648Z,11.80
2019-03-03T21:24:18.894Z,11.80
2019-03-03T21:26:48.238Z,11.80
2019-03-03T21:29:17.516Z,11.80
2019-03-03T21:31:46.782Z,11.80
2019-03-03T21:34:16.136Z,11.90
2019-03-03T21:36:45.449Z,11.90
2019-03-03T21:39:14.893Z,11.80
2019-03-03T21:42:03.488Z,11.90
2019-03-03T21:44:32.727Z,11.90
2019-03-03T21:47:02.062Z,11.90
2019-03-03T21:49:31.440Z,11.90
2019-03-03T21:52:01.258Z,11.90
2019-03-03T21:54:30.552Z,11.90
2019-03-03T21:56:59.947Z,11.90
2019-03-03T21:59:29.211Z,11.80
2019-03-03T22:01:58.509Z,11.80
2019-03-03T22:04:27.751Z,11.80
2019-03-03T22:06:57.090Z,11.80
2019-03-03T22:09:26.392Z,11.90
2019-03-03T22:11:55.735Z,11.90
2019-03-03T22:14:25.096Z,11.90
2019-03-03T22:16:54.405Z,11.90
2019-03-03T22:19:23.658Z,11.90
2019-03-03T22:21:53.033Z,12.00
2019-03-03T22:24:22.279Z,12.00
2019-03-03T22:26:51.556Z,12.00
2019-03-03T22:29:20.872Z,12.00
2019-03-03T22:31:50.182Z,12.00
2019-03-03T22:34:19.483Z,12.00
2019-03-03T22:37:08.077Z,11.90
2019-03-03T22:39:37.351Z,11.90
2019-03-03T22:42:06.596Z,12.00
2019-03-03T22:44:38.064Z,12.00
2019-03-03T22:47:06.861Z,12.00
2019-03-03T22:49:36.154Z,12.00
2019-03-03T22:52:05.473Z,12.00
2019-03-03T22:54:34.727Z,12.00
2019-03-03T22:57:04.038Z,12.10
2019-03-03T22:59:33.275Z,12.10
2019-03-03T23:02:02.547Z,12.20
2019-03-03T23:04:43.916Z,12.10
2019-03-03T23:07:19.275Z,12.10
2019-03-03T23:10:22.132Z,12.10
2019-03-03T23:13:23.888Z,12.10
2019-03-03T23:16:22.111Z,12.10
2019-03-03T23:18:57.235Z,12.10
2019-03-03T23:21:38.118Z,12.10
2019-03-03T23:24:33.969Z,12.10
2019-03-03T23:27:03.218Z,12.10
2019-03-03T23:29:32.607Z,12.20
2019-03-03T23:32:01.851Z,12.20
2019-03-03T23:34:31.170Z,12.30
2019-03-03T23:37:00.498Z,12.30
2019-03-03T23:39:29.765Z,12.30
2019-03-03T23:42:18.336Z,12.30
2019-03-03T23:44:47.614Z,12.30
2019-03-03T23:47:16.853Z,12.40
2019-03-03T23:49:46.103Z,12.30
2019-03-03T23:52:15.424Z,12.40
2019-03-03T23:54:44.723Z,12.40
2019-03-03T23:57:13.963Z,12.50
2019-03-03T23:59:43.252Z,12.40
